Soaring Guidance
Issued by NWS Reno, NV

Current Version | Previous Version | Text Only | Print | Product List | Glossary On
Versions: 1 2 3 4 5 6 7 8 9 10 11 12 13
000
UXUS97 KREV 111450
SRGREV

SOARING FORECAST
NATIONAL WEATHER SERVICE - RENO NV
700 AM PST THU FEB 11 2016

THIS SOARING FORECAST IS FOR THE EASTERN SIERRA AND WESTERN NEVADA
WITH SPECIFIC INDICES FOR THE GREATER RENO AREA.

THIS FORECAST IS PREPARED DAILY BY 700 AM AND IS NOT UPDATED.

FOR CURRENT FLIGHT CONDITIONS...FORECASTS...AND ADVISORIES...ACCESS
YOUR LOCAL BRIEFING OUTLET OR FLIGHT SERVICE STATION.

*******************************************************************
FORECASTED LOCAL INDICES FOR RENO:        TODAY     YESTERDAY
FORECASTED MAX TEMP AT RENO (DEG F).....     66          63
FORECASTED TRIGGER TEMPERATURE (DEG F)..     68          66
   EXCEEDED YESTERDAY BY
FORECASTED MAXIMUM ALTITUDE (FT MSL)....   7600        8000
FORECASTED SOARING INDEX (FPM)..........    198         240
FORECASTED K-INDEX.........VALID 18Z....      1          -5
FORECASTED K-INDEX.........VALID 00Z....     -5          -8
FORECASTED LIFTED INDEX....VALID 18Z....     10           9
FORECASTED LIFTED INDEX....VALID 00Z....      8           9

AFTERNOON WINDS ALOFT FORECAST
MSL (FT) WIND/TEMP
9000  2318/+08
10000 2319/+05
12000 2320/+01
14000 2221/-04
16000 2222/-09
18000 2226/-15
24000 2336/-27
30000 2439/-44
34000 2442/-54
39000 2341/-64

SLIDE MOUNTAIN DATA:
     DATE       TIME     TEMP  DEWPT   RH         WIND (MPH)
                        (F)   (F)           | DIR  SPEED GUST
2016-02-11    05:50      40     9     13    | 257   25   30
2016-02-11    05:30      41     9     13    | 258   28   33
2016-02-11    05:20      40     9     13    | 261   30   36
2016-02-11    05:00      40     9     12    | 260   28   33

RENO TAF FORECAST:
KRNO 111120Z 1112/1212 VRB04KT P6SM BKN200

CARSON CITY TAF FORECAST:
KCXP 111120Z 1112/1212 VRB04KT P6SM BKN200

OUTLOOK FOR THE RENO-CARSON CITY-MINDEN AREA:
.FRIDAY...PARTLY CLOUDY. HIGHS 63 TO 68. LIGHT WINDS.

SUNRISE AND SUNSET
FEBRUARY 11 2016......SUNRISE   657 AM PST   SUNSET   531 PM PST
FEBRUARY 12 2016......SUNRISE   655 AM PST   SUNSET   532 PM PST


USA.gov is the U.S. government's official web portal to all federal, state and local government web resources and services.